createdAt,value
2024-03-26T00:00:49.469Z,4.9028
2024-03-26T00:01:52.273Z,4.8825
2024-03-26T00:02:55.032Z,4.8524
2024-03-26T00:03:57.708Z,4.8285
2024-03-26T00:05:00.398Z,4.8316
2024-03-26T00:06:03.123Z,4.8255
2024-03-26T00:07:05.869Z,4.8326
2024-03-26T00:08:08.534Z,5.0875
2024-03-26T00:09:11.257Z,5.0390
2024-03-26T00:10:14.013Z,5.0402
2024-03-26T00:11:16.736Z,5.0684
2024-03-26T00:12:19.524Z,5.0417
2024-03-26T00:13:22.184Z,4.9918
2024-03-26T00:14:24.953Z,5.0173
2024-03-26T00:15:27.618Z,4.9829
2024-03-26T00:16:30.335Z,5.0074
2024-03-26T00:17:33.017Z,4.9360
2024-03-26T00:18:35.763Z,4.9573
2024-03-26T00:19:38.506Z,5.0268
2024-03-26T00:20:41.184Z,4.9693
2024-03-26T00:21:43.962Z,4.9212
2024-03-26T00:22:46.659Z,4.8813
2024-03-26T00:23:49.346Z,4.8294
2024-03-26T00:24:52.026Z,4.8369
2024-03-26T00:25:54.747Z,4.8767
2024-03-26T00:26:57.562Z,4.8817
2024-03-26T00:28:00.280Z,4.8375
2024-03-26T00:29:02.942Z,4.8279
2024-03-26T00:30:05.702Z,4.8323
2024-03-26T00:31:08.435Z,4.7435
2024-03-26T00:32:11.477Z,4.7671
2024-03-26T00:33:14.223Z,4.7829
2024-03-26T00:34:16.889Z,4.8611
2024-03-26T00:35:19.627Z,4.7637
2024-03-26T00:36:22.457Z,4.7143
2024-03-26T00:37:25.150Z,4.6969
2024-03-26T00:38:27.893Z,4.6488
2024-03-26T00:39:30.629Z,4.6137
2024-03-26T00:40:33.312Z,4.6884
2024-03-26T00:41:36.004Z,4.6546
2024-03-26T00:42:38.651Z,4.6261
2024-03-26T00:43:41.388Z,4.6107
2024-03-26T00:44:44.097Z,4.6601
2024-03-26T00:45:46.820Z,4.7209
2024-03-26T00:46:49.503Z,4.6693
2024-03-26T00:47:52.264Z,4.6512
2024-03-26T00:48:54.941Z,4.6561
2024-03-26T00:49:57.698Z,4.6938
2024-03-26T00:51:00.417Z,4.7565
2024-03-26T00:52:03.177Z,4.6821
2024-03-26T00:53:05.867Z,4.5785
2024-03-26T00:54:08.576Z,4.4894
2024-03-26T00:55:11.242Z,4.4434
2024-03-26T00:56:14.017Z,4.4091
2024-03-26T00:57:16.720Z,4.4315
2024-03-26T00:58:19.458Z,4.4582
2024-03-26T00:59:22.161Z,4.4635
2024-03-26T01:00:24.840Z,4.4853
2024-03-26T01:01:27.531Z,4.5036
2024-03-26T01:02:30.385Z,4.4840
2024-03-26T01:03:33.051Z,4.3042
2024-03-26T01:04:35.776Z,4.2367
2024-03-26T01:05:38.445Z,4.2084
2024-03-26T01:06:41.217Z,4.2240
2024-03-26T01:07:43.906Z,4.2750
2024-03-26T01:08:46.589Z,4.2440
2024-03-26T01:09:49.304Z,4.2481
2024-03-26T01:10:52.176Z,4.2892
2024-03-26T01:11:54.871Z,4.2297
2024-03-26T01:12:57.590Z,4.1125
2024-03-26T01:14:00.252Z,4.1167
2024-03-26T01:15:03.014Z,4.1520
2024-03-26T01:16:05.702Z,4.1149
2024-03-26T01:17:08.445Z,4.1119
2024-03-26T01:18:11.078Z,4.0996
2024-03-26T01:19:13.916Z,4.0682
2024-03-26T01:20:16.891Z,4.0480
2024-03-26T01:21:22.866Z,4.0317
2024-03-26T01:22:22.784Z,4.0565
2024-03-26T01:23:25.440Z,4.0722
2024-03-26T01:24:28.185Z,4.0338
2024-03-26T01:25:31.077Z,4.0220
2024-03-26T01:26:33.858Z,4.0870
2024-03-26T01:27:36.586Z,4.1072
2024-03-26T01:28:39.300Z,4.1777
2024-03-26T01:29:41.969Z,4.1944
2024-03-26T01:30:44.721Z,4.2984
2024-03-26T01:31:47.466Z,4.2949
2024-03-26T01:32:50.217Z,4.3155
2024-03-26T01:33:52.905Z,4.2542
2024-03-26T01:34:55.918Z,4.1548
2024-03-26T01:35:58.670Z,4.1170
2024-03-26T01:37:01.383Z,4.1697
2024-03-26T01:38:04.019Z,4.1329
2024-03-26T01:39:06.794Z,4.0698
2024-03-26T01:40:09.544Z,4.0298
2024-03-26T01:41:12.246Z,3.9970
2024-03-26T01:42:14.984Z,4.0486
2024-03-26T01:43:17.668Z,4.1069
2024-03-26T01:44:20.430Z,4.1160
2024-03-26T01:45:23.137Z,4.1146
2024-03-26T01:46:25.857Z,4.1397
2024-03-26T01:47:28.535Z,4.1559
2024-03-26T01:48:31.309Z,4.1065
2024-03-26T01:49:34.017Z,4.1309
2024-03-26T01:50:36.789Z,4.1105
2024-03-26T01:51:39.522Z,4.0720
2024-03-26T01:52:42.197Z,4.0502
2024-03-26T01:53:44.963Z,4.0614
2024-03-26T01:54:47.698Z,4.0597
2024-03-26T01:55:50.365Z,4.0519
2024-03-26T01:56:53.063Z,4.0220
2024-03-26T01:57:55.732Z,3.9939
2024-03-26T01:58:58.429Z,4.0146
2024-03-26T02:00:01.145Z,4.0050
2024-03-26T02:01:03.941Z,3.9397
2024-03-26T02:02:06.651Z,3.9102
2024-03-26T02:03:09.318Z,3.8632
2024-03-26T02:04:12.102Z,3.8464
2024-03-26T02:05:14.822Z,3.8687
2024-03-26T02:06:17.533Z,3.8836
2024-03-26T02:07:20.219Z,3.8980
2024-03-26T02:08:22.988Z,3.8311
2024-03-26T02:09:25.699Z,3.7992
2024-03-26T02:10:28.410Z,3.8320
2024-03-26T02:11:31.143Z,3.8028
2024-03-26T02:12:33.873Z,3.6331
2024-03-26T02:13:36.607Z,3.7437
2024-03-26T02:14:39.346Z,3.7670
2024-03-26T02:15:42.078Z,3.7906
2024-03-26T02:16:44.802Z,3.7470
2024-03-26T02:17:47.566Z,3.7828
2024-03-26T02:18:50.224Z,3.8029
2024-03-26T02:19:52.960Z,3.8365
2024-03-26T02:20:55.732Z,3.8414
2024-03-26T02:21:58.478Z,3.8458
2024-03-26T02:23:01.188Z,3.8259
2024-03-26T02:24:04.134Z,3.8003
2024-03-26T02:25:06.820Z,3.8328
2024-03-26T02:26:09.558Z,3.8243
2024-03-26T02:27:12.255Z,3.8428
2024-03-26T02:28:14.970Z,3.8489
2024-03-26T02:29:17.742Z,3.8833
2024-03-26T02:30:20.427Z,3.8556
2024-03-26T02:31:23.138Z,3.8500
2024-03-26T02:32:25.962Z,3.8164
2024-03-26T02:33:28.655Z,3.8471
2024-03-26T02:34:31.405Z,3.8912
2024-03-26T02:35:34.131Z,3.9498
2024-03-26T02:36:36.854Z,3.9952
2024-03-26T02:37:39.581Z,3.9867
2024-03-26T02:38:42.358Z,3.9842
2024-03-26T02:39:45.160Z,4.1090
2024-03-26T02:40:47.939Z,4.1370
2024-03-26T02:41:50.717Z,4.1621
2024-03-26T02:42:53.448Z,4.1348
2024-03-26T02:43:56.228Z,4.1022
2024-03-26T02:44:58.963Z,4.1152
2024-03-26T02:46:01.852Z,4.1192
2024-03-26T02:47:04.586Z,4.0987
2024-03-26T02:48:07.324Z,4.0941
2024-03-26T02:49:10.011Z,4.1004
2024-03-26T02:50:12.742Z,4.0403
2024-03-26T02:51:15.458Z,3.9906
2024-03-26T02:52:18.173Z,3.9713
2024-03-26T02:53:20.958Z,3.9347
2024-03-26T02:54:23.675Z,3.9801
2024-03-26T02:55:26.569Z,4.0039
2024-03-26T02:56:29.372Z,4.1612
2024-03-26T02:57:32.113Z,4.1542
2024-03-26T02:58:34.850Z,4.0959
2024-03-26T02:59:37.668Z,4.0250
2024-03-26T03:00:40.556Z,3.9721
2024-03-26T03:01:43.297Z,3.9182
2024-03-26T03:02:47.255Z,3.9775
2024-03-26T03:03:47.137Z,3.9785
2024-03-26T03:04:49.977Z,3.9689
2024-03-26T03:05:52.719Z,4.0197
2024-03-26T03:06:55.425Z,4.0832
2024-03-26T03:07:58.154Z,4.1550
2024-03-26T03:09:00.937Z,4.1642
2024-03-26T03:10:03.751Z,4.1735
2024-03-26T03:11:06.482Z,4.1784
2024-03-26T03:12:09.217Z,4.0919
2024-03-26T03:13:11.996Z,4.0568
2024-03-26T03:14:14.777Z,4.1050
2024-03-26T03:15:17.515Z,4.0507
2024-03-26T03:16:20.244Z,4.0025
2024-03-26T03:17:23.041Z,3.9925
2024-03-26T03:18:25.854Z,3.9925
2024-03-26T03:19:28.578Z,4.0034
2024-03-26T03:20:31.321Z,4.0115
2024-03-26T03:21:34.068Z,3.9504
2024-03-26T03:22:36.840Z,3.9136
2024-03-26T03:23:39.773Z,3.9207
2024-03-26T03:24:42.497Z,3.9749
2024-03-26T03:25:45.262Z,3.9836
2024-03-26T03:26:48.011Z,3.9991
2024-03-26T03:27:50.724Z,3.9786
2024-03-26T03:28:53.437Z,3.9597
2024-03-26T03:29:56.177Z,3.9406
2024-03-26T03:30:58.968Z,3.9183
2024-03-26T03:32:01.696Z,3.9200
2024-03-26T03:33:04.580Z,3.8807
2024-03-26T03:34:07.285Z,3.8531
2024-03-26T03:35:10.040Z,3.8145
2024-03-26T03:36:12.722Z,3.8931
2024-03-26T03:37:15.464Z,3.8741
2024-03-26T03:38:18.165Z,3.8930
2024-03-26T03:39:20.899Z,3.9744
2024-03-26T03:40:23.603Z,3.9766
2024-03-26T03:41:26.340Z,4.0330
2024-03-26T03:42:29.045Z,4.0551
2024-03-26T03:43:31.778Z,4.0829
2024-03-26T03:44:34.495Z,4.1048
2024-03-26T03:45:37.479Z,4.1084
2024-03-26T03:46:40.245Z,4.1165
2024-03-26T03:47:42.988Z,4.1109
2024-03-26T03:48:45.680Z,4.1223
2024-03-26T03:49:48.393Z,4.1904
2024-03-26T03:50:51.242Z,4.2041
2024-03-26T03:51:53.962Z,4.1708
2024-03-26T03:52:56.692Z,4.1473
2024-03-26T03:53:59.420Z,4.1619
2024-03-26T03:55:02.338Z,4.1732
2024-03-26T03:56:05.057Z,4.1324
2024-03-26T03:57:07.785Z,4.0881
2024-03-26T03:58:10.831Z,4.0600
2024-03-26T03:59:13.531Z,4.0204
2024-03-26T04:00:16.272Z,3.9735
2024-03-26T04:01:18.968Z,3.9271
2024-03-26T04:02:21.693Z,3.9784
2024-03-26T04:03:24.460Z,3.9753
2024-03-26T04:04:27.228Z,4.0234
2024-03-26T04:05:29.955Z,3.9753
2024-03-26T04:06:32.731Z,4.0376
2024-03-26T04:07:35.620Z,4.0528
2024-03-26T04:08:38.336Z,4.0465
2024-03-26T04:09:41.048Z,4.0347
2024-03-26T04:10:43.767Z,4.0103
2024-03-26T04:11:46.485Z,3.9612
2024-03-26T04:12:49.299Z,3.9507
2024-03-26T04:13:52.014Z,3.9308
2024-03-26T04:14:54.749Z,3.9041
2024-03-26T04:15:57.696Z,3.9332
2024-03-26T04:17:00.426Z,3.9651
2024-03-26T04:18:03.207Z,4.0106
2024-03-26T04:19:05.977Z,3.9959
2024-03-26T04:20:08.717Z,3.9965
2024-03-26T04:21:11.402Z,4.0059
2024-03-26T04:22:14.140Z,3.9878
2024-03-26T04:23:16.912Z,3.9802
2024-03-26T04:24:19.776Z,3.9627
2024-03-26T04:25:22.593Z,3.9148
2024-03-26T04:26:25.322Z,3.9002
2024-03-26T04:27:28.060Z,3.8541
2024-03-26T04:28:30.808Z,3.7994
2024-03-26T04:29:33.548Z,3.7021
2024-03-26T04:30:36.395Z,3.6396
2024-03-26T04:31:39.142Z,3.6302
2024-03-26T04:32:41.860Z,3.6420
2024-03-26T04:33:44.591Z,3.6436
2024-03-26T04:34:47.271Z,3.6584
2024-03-26T04:35:50.038Z,3.6633
2024-03-26T04:36:52.723Z,3.6736
2024-03-26T04:37:55.457Z,3.7041
2024-03-26T04:38:58.484Z,3.5979
2024-03-26T04:40:01.253Z,3.5660
2024-03-26T04:41:04.007Z,3.5579
2024-03-26T04:42:06.748Z,3.5605
2024-03-26T04:43:09.455Z,3.5552
2024-03-26T04:44:12.207Z,3.5212
2024-03-26T04:45:14.944Z,3.4791
2024-03-26T04:46:17.667Z,3.4749
2024-03-26T04:47:20.605Z,3.4720
2024-03-26T04:48:23.379Z,3.4843
2024-03-26T04:49:26.086Z,3.5320
2024-03-26T04:50:28.887Z,3.5611
2024-03-26T04:51:31.774Z,3.5239
2024-03-26T04:52:34.520Z,3.4988
2024-03-26T04:53:37.342Z,3.4709
2024-03-26T04:54:40.251Z,3.4582
2024-03-26T04:55:42.964Z,3.4242
2024-03-26T04:56:45.684Z,3.3962
2024-03-26T04:57:48.412Z,3.3585
2024-03-26T04:58:51.151Z,3.3079
2024-03-26T04:59:53.860Z,3.2386
2024-03-26T05:00:56.577Z,3.2450
2024-03-26T05:01:59.376Z,3.3413
2024-03-26T05:03:02.135Z,3.3702
2024-03-26T05:04:04.876Z,3.3381
2024-03-26T05:05:07.618Z,3.3073
2024-03-26T05:06:10.430Z,3.2669
2024-03-26T05:07:13.154Z,3.3264
2024-03-26T05:08:15.946Z,3.2861
2024-03-26T05:09:18.649Z,3.3057
2024-03-26T05:10:21.397Z,3.2637
2024-03-26T05:11:24.154Z,3.2156
2024-03-26T05:12:27.220Z,3.2373
2024-03-26T05:13:29.925Z,3.2506
2024-03-26T05:14:32.890Z,3.3344
2024-03-26T05:15:35.612Z,3.3773
2024-03-26T05:16:38.379Z,3.3294
2024-03-26T05:17:41.118Z,3.4110
2024-03-26T05:18:43.852Z,3.3687
2024-03-26T05:19:46.584Z,3.3735
2024-03-26T05:20:49.348Z,3.4516
2024-03-26T05:21:52.196Z,3.3964
2024-03-26T05:22:55.009Z,3.4083
2024-03-26T05:23:57.755Z,3.3984
2024-03-26T05:25:00.503Z,3.3990
2024-03-26T05:26:03.456Z,3.4123
2024-03-26T05:27:06.239Z,3.4166
2024-03-26T05:28:08.967Z,3.4166
2024-03-26T05:29:11.776Z,3.3473
2024-03-26T05:30:14.478Z,3.3487
2024-03-26T05:31:17.159Z,3.3687
2024-03-26T05:32:19.845Z,3.3585
2024-03-26T05:33:22.556Z,3.3579
2024-03-26T05:34:25.344Z,3.4062
2024-03-26T05:35:28.271Z,3.3783
2024-03-26T05:36:30.971Z,3.3218
2024-03-26T05:37:33.669Z,3.2589
2024-03-26T05:38:36.442Z,3.2807
2024-03-26T05:39:39.085Z,3.3025
2024-03-26T05:40:41.860Z,3.3309
2024-03-26T05:41:44.536Z,3.3162
2024-03-26T05:42:47.291Z,3.2898
2024-03-26T05:43:50.028Z,3.2478
2024-03-26T05:44:52.793Z,3.2609
2024-03-26T05:45:55.436Z,3.2496
2024-03-26T05:46:58.177Z,3.2441
2024-03-26T05:48:00.900Z,3.2876
2024-03-26T05:49:03.622Z,3.3562
2024-03-26T05:50:06.303Z,3.3950
2024-03-26T05:51:09.037Z,3.4243
2024-03-26T05:52:11.778Z,3.4418
2024-03-26T05:53:14.500Z,3.4721
2024-03-26T05:54:17.186Z,3.5271
2024-03-26T05:55:19.937Z,3.5175
2024-03-26T05:56:22.993Z,3.6013
2024-03-26T05:57:25.694Z,3.5721
2024-03-26T05:58:28.422Z,3.6256
2024-03-26T05:59:31.124Z,3.6182
2024-03-26T06:00:33.891Z,3.6393
2024-03-26T06:01:36.587Z,3.6418
2024-03-26T06:02:39.359Z,3.6351
2024-03-26T06:03:42.054Z,3.6513
2024-03-26T06:04:44.739Z,3.6807
2024-03-26T06:05:47.570Z,3.7074
2024-03-26T06:06:50.254Z,3.7282
2024-03-26T06:07:52.916Z,3.7620
2024-03-26T06:08:55.690Z,3.8181
2024-03-26T06:09:58.347Z,3.8087
2024-03-26T06:11:01.058Z,3.8507
2024-03-26T06:12:03.741Z,3.8795
2024-03-26T06:13:07.785Z,3.8351
2024-03-26T06:14:07.084Z,3.8089
2024-03-26T06:15:09.786Z,3.8342
2024-03-26T06:16:12.474Z,3.8227
2024-03-26T06:17:15.146Z,3.8957
2024-03-26T06:18:17.809Z,3.9207
2024-03-26T06:19:20.585Z,3.9462
2024-03-26T06:20:23.250Z,4.0094
2024-03-26T06:21:25.997Z,4.0425
2024-03-26T06:22:28.762Z,4.0621
2024-03-26T06:23:31.528Z,4.0866
2024-03-26T06:24:34.173Z,4.1145
2024-03-26T06:25:36.869Z,4.1906
2024-03-26T06:26:39.613Z,4.1832
2024-03-26T06:27:42.288Z,4.1777
2024-03-26T06:28:45.056Z,4.2189
2024-03-26T06:29:47.782Z,4.3093
2024-03-26T06:30:50.491Z,4.2917
2024-03-26T06:31:53.234Z,4.3471
2024-03-26T06:32:55.987Z,4.4012
2024-03-26T06:33:58.678Z,4.4153
2024-03-26T06:35:01.373Z,4.4269
2024-03-26T06:36:04.100Z,4.4508
2024-03-26T06:37:06.805Z,4.4567
2024-03-26T06:38:09.880Z,4.4870
2024-03-26T06:39:12.625Z,4.4677
2024-03-26T06:40:15.319Z,4.4905
2024-03-26T06:41:17.996Z,4.4564
2024-03-26T06:42:20.746Z,4.5491
2024-03-26T06:43:23.459Z,4.6088
2024-03-26T06:44:26.231Z,4.5358
2024-03-26T06:45:29.223Z,4.5843
2024-03-26T06:46:31.918Z,4.5987
2024-03-26T06:47:34.650Z,4.7895
2024-03-26T06:48:37.387Z,4.8157
2024-03-26T06:49:40.147Z,4.8510
2024-03-26T06:50:42.836Z,4.9522
2024-03-26T06:51:46.135Z,5.0105
2024-03-26T06:52:48.926Z,5.0823
2024-03-26T06:53:51.608Z,4.9586
2024-03-26T06:54:54.352Z,4.9521
2024-03-26T06:55:57.076Z,4.9736
2024-03-26T06:56:59.780Z,5.1842
2024-03-26T06:58:02.558Z,5.3121
2024-03-26T06:59:05.212Z,5.2955
2024-03-26T07:00:07.922Z,5.4249
2024-03-26T07:01:10.591Z,5.5050
2024-03-26T07:02:13.390Z,5.5011
2024-03-26T07:03:16.142Z,5.4210
2024-03-26T07:04:18.817Z,5.4584
2024-03-26T07:05:21.536Z,5.4379
2024-03-26T07:06:24.256Z,5.5683
2024-03-26T07:07:26.993Z,5.4668
2024-03-26T07:08:29.687Z,5.6216
2024-03-26T07:09:32.362Z,5.6481
2024-03-26T07:10:35.134Z,5.6794
2024-03-26T07:11:37.868Z,5.6210
2024-03-26T07:12:40.557Z,5.5777
2024-03-26T07:13:43.232Z,5.4661
2024-03-26T07:14:46.036Z,5.5526
2024-03-26T07:15:48.820Z,5.6250
2024-03-26T07:16:51.478Z,5.5894
2024-03-26T07:17:54.209Z,5.4571
2024-03-26T07:18:56.873Z,5.5020
2024-03-26T07:19:59.631Z,5.6201
2024-03-26T07:21:02.340Z,5.5714
2024-03-26T07:22:05.115Z,5.4318
2024-03-26T07:23:07.754Z,5.3799
2024-03-26T07:24:10.503Z,5.3401
2024-03-26T07:25:13.241Z,5.3379
2024-03-26T07:26:15.960Z,5.3166
2024-03-26T07:27:18.663Z,5.3628
2024-03-26T07:28:21.374Z,5.4700
2024-03-26T07:29:24.099Z,5.5664
2024-03-26T07:30:26.844Z,5.5904
2024-03-26T07:31:29.511Z,5.6802
2024-03-26T07:32:32.223Z,5.7576
2024-03-26T07:33:34.985Z,5.9147
2024-03-26T07:34:37.723Z,5.9340
2024-03-26T07:35:40.443Z,5.9788
2024-03-26T07:36:43.162Z,5.9898
2024-03-26T07:37:45.859Z,6.0867
2024-03-26T07:38:48.591Z,6.1418
2024-03-26T07:39:51.277Z,6.2353
2024-03-26T07:40:53.998Z,6.5032
2024-03-26T07:41:56.743Z,6.7965
2024-03-26T07:43:01.417Z,6.6916
2024-03-26T07:43:59.419Z,6.6809
2024-03-26T07:45:02.536Z,6.8763
2024-03-26T07:46:05.208Z,7.0905
2024-03-26T07:47:08.098Z,7.0147
2024-03-26T07:48:10.857Z,6.9090
2024-03-26T07:49:13.561Z,6.9372
2024-03-26T07:50:16.302Z,7.1223
2024-03-26T07:51:19.646Z,7.1859
2024-03-26T07:52:19.545Z,7.1672
2024-03-26T07:53:22.333Z,7.3076
2024-03-26T07:54:24.947Z,7.4289
2024-03-26T07:55:27.688Z,7.2950
2024-03-26T07:56:30.389Z,6.8846
2024-03-26T07:57:33.115Z,6.9283
2024-03-26T07:58:35.786Z,7.2800
2024-03-26T07:59:38.533Z,7.4227
2024-03-26T08:00:41.323Z,7.5034
2024-03-26T08:01:44.263Z,7.8519
2024-03-26T08:02:46.948Z,8.0215
2024-03-26T08:03:49.712Z,7.7114
2024-03-26T08:04:52.414Z,7.7759
2024-03-26T08:05:55.220Z,8.1094
2024-03-26T08:06:57.941Z,8.1526
2024-03-26T08:08:00.878Z,8.1452
2024-03-26T08:09:03.612Z,8.1335
2024-03-26T08:10:06.399Z,8.3343
2024-03-26T08:11:09.381Z,8.3063
2024-03-26T08:12:12.050Z,8.0295
2024-03-26T08:13:14.823Z,8.2444
2024-03-26T08:14:17.581Z,8.4051
2024-03-26T08:15:20.303Z,8.4478
2024-03-26T08:16:23.032Z,8.3863
2024-03-26T08:17:25.735Z,8.2269
2024-03-26T08:18:28.493Z,8.6347
2024-03-26T08:19:31.630Z,8.8429
2024-03-26T08:20:31.383Z,8.8235
2024-03-26T08:21:34.079Z,9.1256
2024-03-26T08:22:36.761Z,9.0592
2024-03-26T08:23:39.480Z,8.6887
2024-03-26T08:24:42.240Z,8.6589
2024-03-26T08:25:44.940Z,8.9297
2024-03-26T08:26:47.636Z,9.0108
2024-03-26T08:27:50.341Z,9.3867
2024-03-26T08:28:53.069Z,9.3802
2024-03-26T08:29:55.777Z,9.4391
2024-03-26T08:30:58.519Z,9.4376
2024-03-26T08:32:01.218Z,9.5940
2024-03-26T08:33:04.408Z,9.6722
2024-03-26T08:34:07.142Z,9.6386
2024-03-26T08:35:09.859Z,9.7078
2024-03-26T08:36:13.017Z,9.8445
2024-03-26T08:37:12.670Z,10.0221
2024-03-26T08:38:15.355Z,10.3792
2024-03-26T08:39:18.055Z,10.3102
2024-03-26T08:40:20.941Z,10.1283
2024-03-26T08:41:23.793Z,10.1466
2024-03-26T08:42:26.519Z,9.9984
2024-03-26T08:43:29.285Z,9.7564
2024-03-26T08:44:32.351Z,9.3697
2024-03-26T08:45:35.019Z,9.5554
2024-03-26T08:46:37.706Z,9.8480
2024-03-26T08:47:40.428Z,9.9558
2024-03-26T08:48:43.152Z,9.6596
2024-03-26T08:49:45.860Z,9.3560
2024-03-26T08:50:48.606Z,9.2639
2024-03-26T08:51:52.202Z,9.3029
2024-03-26T08:52:51.571Z,9.1606
2024-03-26T08:53:54.279Z,9.3378
2024-03-26T08:54:56.979Z,9.4492
2024-03-26T08:56:08.565Z,9.5885
2024-03-26T08:57:01.407Z,9.3949
2024-03-26T08:58:04.058Z,9.5665
2024-03-26T08:59:06.806Z,9.7214
2024-03-26T09:00:09.557Z,9.8165
2024-03-26T09:01:12.279Z,10.1043
2024-03-26T09:02:14.992Z,10.0223
2024-03-26T09:03:17.772Z,9.9462
2024-03-26T09:04:21.934Z,10.0810
2024-03-26T09:05:22.608Z,10.1150
2024-03-26T09:06:25.299Z,10.0451
2024-03-26T09:07:28.206Z,10.1648
2024-03-26T09:08:31.000Z,10.2742
2024-03-26T09:09:33.696Z,10.1914
2024-03-26T09:10:36.431Z,10.4615
2024-03-26T09:11:39.146Z,10.7351
2024-03-26T09:12:41.865Z,11.0508
2024-03-26T09:13:45.019Z,10.7197
2024-03-26T09:14:47.692Z,10.6655
2024-03-26T09:15:50.482Z,10.9524
2024-03-26T09:16:53.192Z,10.6940
2024-03-26T09:17:55.922Z,11.1020
2024-03-26T09:19:01.701Z,11.5237
2024-03-26T09:20:01.641Z,11.1763
2024-03-26T09:21:04.366Z,10.9692
2024-03-26T09:22:07.316Z,11.8133
2024-03-26T09:23:10.026Z,11.9289
2024-03-26T09:24:12.719Z,12.3443
2024-03-26T09:25:15.460Z,12.0747
2024-03-26T09:26:18.195Z,12.1897
2024-03-26T09:27:20.922Z,12.2523
2024-03-26T09:28:23.692Z,12.2682
2024-03-26T09:29:26.365Z,12.8467
2024-03-26T09:30:29.377Z,13.0375
2024-03-26T09:31:32.141Z,13.3449
2024-03-26T09:32:34.830Z,13.0196
2024-03-26T09:33:37.597Z,12.4389
2024-03-26T09:34:40.332Z,12.0188
2024-03-26T09:35:43.308Z,12.2683
2024-03-26T09:36:46.158Z,12.6316
2024-03-26T09:37:49.941Z,12.9568
2024-03-26T09:38:51.048Z,12.8970
2024-03-26T09:39:51.748Z,12.3580
2024-03-26T09:40:54.555Z,12.4782
2024-03-26T09:41:57.439Z,12.2128
2024-03-26T09:43:00.167Z,12.8355
2024-03-26T09:44:03.050Z,13.0124
2024-03-26T09:45:06.857Z,12.7103
2024-03-26T09:46:06.659Z,12.1939
2024-03-26T09:47:09.377Z,11.4782
2024-03-26T09:48:12.096Z,11.4364
2024-03-26T09:49:14.830Z,11.5770
2024-03-26T09:50:17.628Z,12.1846
2024-03-26T09:51:20.571Z,12.2492
2024-03-26T09:52:23.331Z,12.1979
2024-03-26T09:53:26.068Z,12.3285
2024-03-26T09:54:28.996Z,12.5846
2024-03-26T09:55:31.805Z,13.0420
2024-03-26T09:56:34.528Z,12.7954
2024-03-26T09:57:37.274Z,12.9099
2024-03-26T09:58:40.289Z,12.5981
2024-03-26T09:59:43.093Z,12.6650
2024-03-26T10:00:45.834Z,13.0682
2024-03-26T10:01:48.548Z,13.0139
2024-03-26T10:02:51.454Z,13.1607
2024-03-26T10:03:54.509Z,13.0159
2024-03-26T10:04:57.244Z,13.0768
2024-03-26T10:06:00.097Z,12.9019
2024-03-26T10:07:02.982Z,12.1352
2024-03-26T10:08:05.715Z,11.7523
2024-03-26T10:09:08.735Z,11.7031
2024-03-26T10:10:11.488Z,11.9077
2024-03-26T10:11:14.273Z,11.6981
2024-03-26T10:12:17.243Z,11.5856
2024-03-26T10:13:20.003Z,12.0215
2024-03-26T10:14:22.771Z,12.5270
2024-03-26T10:15:25.700Z,12.5741
2024-03-26T10:16:28.426Z,12.5365
2024-03-26T10:17:33.250Z,12.5282
2024-03-26T10:18:32.854Z,12.8883
2024-03-26T10:19:35.608Z,12.4179
2024-03-26T10:20:38.412Z,12.0313
2024-03-26T10:21:41.373Z,12.3619
2024-03-26T10:22:44.108Z,12.3523
2024-03-26T10:23:46.901Z,12.5227
2024-03-26T10:24:49.858Z,12.7720
2024-03-26T10:25:52.572Z,12.8699
2024-03-26T10:26:55.381Z,13.2210
2024-03-26T10:27:58.097Z,13.0073
2024-03-26T10:29:01.082Z,12.9485
2024-03-26T10:30:03.886Z,12.9368
2024-03-26T10:31:06.653Z,12.5990
2024-03-26T10:32:09.629Z,11.7860
2024-03-26T10:33:12.560Z,11.8369
2024-03-26T10:34:15.245Z,12.0713
2024-03-26T10:35:18.021Z,12.3404
2024-03-26T10:36:20.815Z,12.3143
2024-03-26T10:37:23.548Z,12.4837
2024-03-26T10:38:26.487Z,12.2968
2024-03-26T10:39:29.285Z,11.9206
2024-03-26T10:40:32.021Z,11.7313
2024-03-26T10:41:34.935Z,12.4794
2024-03-26T10:42:37.968Z,12.1953
2024-03-26T10:43:40.695Z,12.4002
2024-03-26T10:44:43.704Z,12.3481
2024-03-26T10:45:59.960Z,12.5014
2024-03-26T10:46:49.399Z,12.5261
2024-03-26T10:47:48.938Z,12.5814
2024-03-26T10:48:57.495Z,12.3864
2024-03-26T10:49:53.414Z,12.3330
2024-03-26T10:50:56.625Z,12.3864
2024-03-26T10:51:59.377Z,12.3241
2024-03-26T10:53:02.296Z,11.6776
2024-03-26T10:54:05.103Z,11.8957
2024-03-26T10:55:07.830Z,12.2188
2024-03-26T10:56:10.714Z,12.2059
2024-03-26T10:57:13.478Z,12.3088
2024-03-26T10:58:16.201Z,12.3431
2024-03-26T10:59:18.979Z,12.5846
2024-03-26T11:00:21.946Z,12.6659
2024-03-26T11:01:24.666Z,13.0479
2024-03-26T11:02:27.396Z,13.1328
2024-03-26T11:03:30.106Z,13.4053
2024-03-26T11:04:32.831Z,13.9030
2024-03-26T11:05:35.861Z,14.2559
2024-03-26T11:06:38.606Z,14.5010
2024-03-26T11:07:41.577Z,15.0400
2024-03-26T11:08:44.360Z,15.1063
2024-03-26T11:09:47.115Z,15.6905
2024-03-26T11:10:52.500Z,14.9906
2024-03-26T11:11:52.099Z,15.3265
2024-03-26T11:12:54.890Z,15.9394
2024-03-26T11:13:57.639Z,16.5273
2024-03-26T11:15:00.454Z,16.1026
2024-03-26T11:16:03.799Z,16.3512
2024-03-26T11:17:04.044Z,17.5803
2024-03-26T11:18:06.936Z,17.4806
2024-03-26T11:19:09.727Z,17.9061
2024-03-26T11:20:12.668Z,18.0312
2024-03-26T11:21:15.396Z,18.2623
2024-03-26T11:22:18.459Z,17.9352
2024-03-26T11:23:21.258Z,17.5809
2024-03-26T11:24:23.998Z,17.0519
2024-03-26T11:25:26.788Z,17.0654
2024-03-26T11:26:29.657Z,17.4094
2024-03-26T11:27:32.676Z,17.7082
2024-03-26T11:28:35.391Z,16.9519
2024-03-26T11:29:38.302Z,16.9580
2024-03-26T11:30:41.157Z,18.3966
2024-03-26T11:31:43.956Z,18.5498
2024-03-26T11:32:46.707Z,19.7350
2024-03-26T11:33:49.631Z,20.3903
2024-03-26T11:34:52.459Z,17.8017
2024-03-26T11:35:55.202Z,17.5772
2024-03-26T11:36:58.108Z,17.8027
2024-03-26T11:38:03.485Z,18.4227
2024-03-26T11:39:03.087Z,19.1334
2024-03-26T11:40:06.024Z,19.1954
2024-03-26T11:41:08.984Z,19.1659
2024-03-26T11:42:11.867Z,18.7428
2024-03-26T11:43:14.762Z,18.9462
2024-03-26T11:44:17.554Z,19.6068
2024-03-26T11:45:20.518Z,19.9924
2024-03-26T11:46:23.267Z,21.1854
2024-03-26T11:47:26.101Z,21.4155
2024-03-26T11:48:28.844Z,19.8771
2024-03-26T11:49:31.762Z,19.2805
2024-03-26T11:50:34.536Z,18.6546
2024-03-26T11:51:37.869Z,19.4337
2024-03-26T11:52:38.301Z,19.2268
2024-03-26T11:53:41.310Z,20.0384
2024-03-26T11:54:44.118Z,19.4646
2024-03-26T11:55:47.085Z,18.9478
2024-03-26T11:56:49.848Z,18.9548
2024-03-26T11:57:52.625Z,18.2372
2024-03-26T11:58:55.578Z,19.4736
2024-03-26T11:59:58.326Z,19.1548
2024-03-26T12:01:01.099Z,19.8841
2024-03-26T12:02:03.839Z,19.1788
2024-03-26T12:03:06.796Z,19.2173
2024-03-26T12:04:09.524Z,18.9298
2024-03-26T12:05:12.527Z,18.8450
2024-03-26T12:06:15.245Z,16.8769
2024-03-26T12:07:17.996Z,18.4455
2024-03-26T12:08:20.749Z,18.8815
2024-03-26T12:09:23.545Z,19.1213
2024-03-26T12:10:26.317Z,18.8566
2024-03-26T12:11:29.191Z,19.6960
2024-03-26T12:12:31.879Z,18.0445
2024-03-26T12:13:34.607Z,18.7529
2024-03-26T12:14:37.345Z,19.3057
2024-03-26T12:15:40.374Z,20.9414
2024-03-26T12:16:43.331Z,20.4597
2024-03-26T12:17:46.230Z,20.1404
2024-03-26T12:18:48.969Z,20.5410
2024-03-26T12:19:51.882Z,19.6952
2024-03-26T12:20:54.946Z,19.8948
2024-03-26T12:21:57.693Z,18.2964
2024-03-26T12:23:00.492Z,18.9117
2024-03-26T12:24:03.272Z,19.3230
2024-03-26T12:25:06.166Z,19.1204
2024-03-26T12:26:08.910Z,19.0676
2024-03-26T12:27:11.844Z,17.3066
2024-03-26T12:28:14.649Z,18.0749
2024-03-26T12:29:17.399Z,19.4202
2024-03-26T12:30:20.404Z,19.5702
2024-03-26T12:31:23.325Z,20.4210
2024-03-26T12:32:26.124Z,19.3969
2024-03-26T12:33:28.949Z,20.5239
2024-03-26T12:34:31.871Z,21.0359
2024-03-26T12:35:34.624Z,21.0092
2024-03-26T12:36:37.460Z,21.1038
2024-03-26T12:37:40.390Z,20.0090
2024-03-26T12:38:43.128Z,20.0178
2024-03-26T12:39:46.109Z,20.7340
2024-03-26T12:40:48.949Z,19.8828
2024-03-26T12:41:51.696Z,19.8160
2024-03-26T12:42:54.611Z,20.9344
2024-03-26T12:43:57.330Z,20.7365
2024-03-26T12:45:00.167Z,20.9372
2024-03-26T12:46:02.974Z,19.8871
2024-03-26T12:47:05.825Z,19.1015
2024-03-26T12:48:08.649Z,18.6126
2024-03-26T12:49:11.568Z,17.9101
2024-03-26T12:50:14.392Z,17.8263
2024-03-26T12:51:17.145Z,19.0820
2024-03-26T12:52:20.041Z,20.2802
2024-03-26T12:53:22.766Z,20.9390
2024-03-26T12:54:25.816Z,20.5619
2024-03-26T12:55:28.522Z,20.9693